Latest Weather Observations for Holsworthy (Defence)

IDN60801

Issued at 5:22 am EST Monday 16 July 2018 (issued every 10 minutes, with the page automatically refreshed every 10 minutes)

About weather observations | Map of weather stations | Latest weather observations for NSW | Other Formats
Station Details ID: 068263 Name: HOLSWORTHY (DEFENCE) Lat: -34.08 Lon: 150.90 Height: 165.0 m
Data from the previous 72 hours. | See also: Recent months for locations in New South Wales
Date/Time
EST
Temp
°C
App
Temp
°C
Dew
Point
°C
Rel
Hum
%
Delta-T
°C
Wind Press
QNH
hPa
Press
MSL
hPa
Rain since
9am
mm
Dir  Spd
km/h
Gust
km/h
Spd
kts
Gust
kts
16/05:00am 1.9 -1.6 -2.6 72 1.6 SW 6 6 3 3 - - 0.0
16/04:30am 2.3 -1.1 -2.4 71 1.6 SSW 6 7 3 4 - - 0.0
16/04:00am 2.1 -1.3 -1.7 76 1.3 SSW 6 7 3 4 - - 0.0
16/03:30am 0.1 -4.0 -2.8 81 1.0 SSW 9 11 5 6 - - 0.0
16/03:00am 0.9 -2.3 -3.4 73 1.5 WSW 4 6 2 3 - - 0.0
16/02:30am 2.8 -0.3 -2.5 68 1.9 WSW 4 6 2 3 - - 0.0
16/02:00am 2.2 -1.4 -2.1 73 1.5 SSW 7 13 4 7 - - 0.0
16/01:30am 0.9 -2.7 -3.6 72 1.6 SSW 6 9 3 5 - - 0.0
16/01:00am 2.9 -0.3 -3.2 64 2.1 SSW 4 6 2 3 - - 0.0
16/12:30am 3.0 -0.7 -2.9 65 2.1 S 7 11 4 6 - - 0.0
16/12:00am 2.8 -0.9 -3.3 64 2.1 S 7 9 4 5 - - 0.0
 
Date/Time
EST
Temp
°C
App
Temp
°C
Dew
Point
°C
Rel
Hum
%
Delta-T
°C
Wind Press
QNH
hPa
Press
MSL
hPa
Rain since
9am
mm
Dir  Spd
km/h
Gust
km/h
Spd
kts
Gust
kts
15/11:30pm 2.3 -1.9 -3.8 64 2.1 S 9 11 5 6 - - 0.0
15/11:00pm 3.0 -0.8 -4.0 60 2.4 SSW 7 9 4 5 - - 0.0
15/10:30pm 3.8 0.0 -3.7 58 2.6 S 7 9 4 5 - - 0.0
15/10:00pm 3.6 -0.2 -3.6 59 2.5 S 7 9 4 5 - - 0.0
15/09:30pm 3.0 -1.2 -3.6 62 2.3 S 9 11 5 6 - - 0.0
15/09:00pm 4.2 0.5 -3.3 58 2.6 S 7 9 4 5 - - 0.0
15/08:30pm 4.4 0.6 -3.4 57 2.7 S 7 9 4 5 - - 0.0
15/08:00pm 5.2 1.5 -3.3 54 3.0 S 7 9 4 5 - - 0.0
15/07:30pm 6.2 2.4 -3.4 50 3.4 SSE 7 9 4 5 - - 0.0
15/07:00pm 6.7 3.0 -3.2 49 3.6 S 7 9 4 5 - - 0.0
15/06:30pm 6.2 2.5 -2.9 52 3.3 S 7 11 4 6 - - 0.0
15/06:00pm 7.8 4.3 -3.1 46 4.0 S 6 7 3 4 - - 0.0
15/05:30pm 9.6 6.3 -4.0 38 5.0 SSE 4 6 2 3 - - 0.0
15/05:00pm 12.1 9.0 -5.8 28 6.5 SW 2 2 1 1 - - 0.0
15/04:30pm 13.8 10.0 -5.9 25 7.3 SW 6 7 3 4 - - 0.0
15/04:00pm 14.9 10.9 -6.0 23 7.8 SW 7 13 4 7 - - 0.0
15/03:30pm 15.6 10.7 -6.6 21 8.2 WSW 11 20 6 11 - - 0.0
15/03:00pm 15.9 10.6 -7.0 20 8.5 WSW 13 26 7 14 - - 0.0
15/02:30pm 16.3 10.9 -4.8 23 8.2 W 15 24 8 13 - - 0.0
15/02:00pm 15.9 11.0 -3.6 26 7.8 W 13 28 7 15 - - 0.0
15/01:30pm 15.9 10.7 -3.0 27 7.6 WNW 15 28 8 15 - - 0.0
15/01:00pm 15.1 9.6 -1.9 31 7.0 WNW 17 30 9 16 - - 0.0
15/12:30pm 14.7 9.7 -1.4 33 6.6 WNW 15 26 8 14 - - 0.0
15/12:00pm 14.0 8.6 -1.6 34 6.4 WNW 17 26 9 14 - - 0.0
15/11:30am 13.3 8.2 -1.8 35 6.1 W 15 26 8 14 - - 0.0
15/11:00am 12.4 6.5 -2.2 36 5.8 WSW 19 35 10 19 - - 0.0
15/10:30am 11.3 6.7 -0.8 43 4.9 W 13 24 7 13 - - 0.0
15/10:00am 9.9 5.5 0.3 51 3.9 WSW 13 32 7 17 - - 0.0
15/09:30am 8.5 3.7 0.0 55 3.4 WSW 15 28 8 15 - - 0.0
15/09:00am 6.8 3.2 0.3 63 2.6 SW 9 17 5 9 - - 0.0
15/08:30am 5.3 1.6 0.1 69 2.0 WSW 9 13 5 7 - - 0.0
15/08:00am 3.4 0.1 -0.2 77 1.4 SW 7 9 4 5 - - 0.0
15/07:30am 2.8 -0.6 -0.5 79 1.2 SW 7 9 4 5 - - 0.0
15/07:00am 2.7 -0.7 -0.6 79 1.2 SW 7 9 4 5 - - 0.0
15/06:30am 3.1 -0.3 -0.7 76 1.4 SW 7 11 4 6 - - 0.0
15/06:00am 3.7 0.3 -0.5 74 1.6 SW 7 11 4 6 - - 0.0
15/05:30am 3.9 0.1 -0.5 73 1.6 SSW 9 15 5 8 - - 0.0
15/05:00am 3.8 0.4 -0.4 74 1.6 S 7 11 4 6 - - 0.0
15/04:30am 3.7 -0.1 -0.5 74 1.6 SSW 9 13 5 7 - - 0.0
15/04:00am 4.2 0.4 -0.4 72 1.7 SSW 9 15 5 8 - - 0.0
15/03:30am 4.1 0.7 -0.3 73 1.7 SSW 7 9 4 5 - - 0.0
15/03:00am 4.5 1.2 -0.1 72 1.8 SSW 7 11 4 6 - - 0.0
15/02:30am 4.6 1.3 0.0 72 1.8 SSW 7 13 4 7 - - 0.0
15/02:00am 4.4 1.1 0.2 74 1.6 SSW 7 11 4 6 - - 0.0
15/01:30am 4.5 1.2 0.3 74 1.6 SSW 7 11 4 6 - - 0.0
15/01:00am 4.6 1.3 0.4 74 1.6 S 7 9 4 5 - - 0.0
15/12:30am 3.7 0.4 0.2 78 1.3 S 7 11 4 6 - - 0.0
15/12:00am 4.0 0.8 0.9 80 1.2 S 7 9 4 5 - - 0.0
 
Date/Time
EST
Temp
°C
App
Temp
°C
Dew
Point
°C
Rel
Hum
%
Delta-T
°C
Wind Press
QNH
hPa
Press
MSL
hPa
Rain since
9am
mm
Dir  Spd
km/h
Gust
km/h
Spd
kts
Gust
kts
14/11:30pm 3.6 0.5 1.5 86 0.8 S 7 9 4 5 - - 0.0
14/11:00pm 3.8 0.8 1.8 87 0.8 S 7 9 4 5 - - 0.0
14/10:30pm 3.5 0.7 2.3 92 0.5 S 6 7 3 4 - - 0.0
14/10:00pm 3.7 0.8 2.7 93 0.4 S 7 9 4 5 - - 0.0
14/09:30pm 4.0 1.1 2.8 92 0.5 S 7 9 4 5 - - 0.0
14/09:00pm 4.5 1.8 2.8 89 0.7 S 6 7 3 4 - - 0.0
14/08:30pm 5.4 2.9 3.6 88 0.8 SSW 6 9 3 5 - - 0.0
14/08:00pm 5.5 2.9 3.3 86 0.9 S 6 7 3 4 - - 0.0
14/07:30pm 6.6 4.1 3.6 81 1.3 SSE 6 7 3 4 - - 0.0
14/07:00pm 8.4 5.7 3.7 72 2.0 SSE 7 9 4 5 - - 0.0
14/06:30pm 9.0 6.0 4.0 71 2.2 SSE 9 11 5 6 - - 0.0
14/06:00pm 9.8 7.2 4.4 69 2.4 SSE 7 9 4 5 - - 0.0
14/05:30pm 10.5 8.1 4.4 66 2.8 SSE 6 9 3 5 - - 0.0
14/05:00pm 11.7 9.3 4.4 61 3.3 SE 6 11 3 6 - - 0.0
14/04:30pm 12.7 10.1 4.2 56 3.9 SE 7 13 4 7 - - 0.0
14/04:00pm 13.5 10.4 3.8 52 4.4 SSE 9 17 5 9 - - 0.0
14/03:30pm 14.2 11.4 3.1 47 5.0 SE 7 15 4 8 - - 0.0
14/03:00pm 15.4 13.1 2.9 43 5.7 SSE 4 17 2 9 - - 0.0
14/02:30pm 16.7 13.6 0.4 33 7.1 WNW 6 9 3 5 - - 0.0
14/02:00pm 16.1 12.8 -0.2 33 7.0 W 7 11 4 6 - - 0.0
14/01:30pm 16.5 13.3 0.6 34 7.0 NW 7 11 4 6 - - 0.0
14/01:00pm 15.1 11.9 0.9 38 6.2 WSW 7 13 4 7 - - 0.0
14/12:30pm 15.4 12.6 2.2 41 5.9 W 6 13 3 7 - - 0.0
14/12:00pm 14.2 11.4 1.8 43 5.5 SSW 6 9 3 5 - - 0.0
14/11:30am 13.6 10.7 1.3 43 5.3 WSW 6 11 3 6 - - 0.0
14/11:00am 12.7 9.7 1.7 47 4.8 SW 7 13 4 7 - - 0.0
14/10:30am 11.6 8.1 1.3 49 4.4 WSW 9 19 5 10 - - 0.0
14/10:00am 10.5 7.0 1.1 52 3.9 SW 9 17 5 9 - - 0.0
14/09:30am 9.3 5.4 1.0 56 3.4 WSW 11 22 6 12 - - 0.0
14/09:00am 7.9 4.7 0.6 60 2.9 SW 7 17 4 9 - - 0.0
14/08:30am 6.6 3.4 0.7 66 2.3 SW 7 13 4 7 - - 0.0
14/08:00am 5.0 2.0 0.6 73 1.7 SW 6 9 3 5 - - 0.0
14/07:30am 4.2 1.1 0.2 75 1.5 SSW 6 11 3 6 - - 0.0
14/07:00am 4.7 1.6 0.3 73 1.7 S 6 7 3 4 - - 0.0
14/06:30am 4.5 0.9 0.5 75 1.5 SW 9 13 5 7 - - 0.0
14/06:00am 4.3 1.0 0.3 75 1.5 SW 7 11 4 6 - - 0.0
14/05:30am 4.5 1.3 0.5 75 1.5 SW 7 11 4 6 - - 0.0
14/05:00am 5.1 1.5 0.7 73 1.7 SSW 9 15 5 8 - - 0.0
14/04:30am 5.3 1.4 0.9 73 1.7 SSW 11 17 6 9 - - 0.0
14/04:00am 5.7 1.8 1.1 72 1.8 SW 11 19 6 10 - - 0.0
14/03:30am 5.7 2.2 1.2 73 1.8 SW 9 17 5 9 - - 0.0
14/03:00am 6.0 2.5 1.3 72 1.9 SSW 9 13 5 7 - - 0.0
14/02:30am 6.3 3.2 1.4 71 2.0 SSW 7 15 4 8 - - 0.0
14/02:00am 6.1 3.0 1.4 72 1.9 SSW 7 13 4 7 - - 0.0
14/01:30am 6.2 2.7 1.5 72 1.9 SW 9 20 5 11 - - 0.0
14/01:00am 6.6 2.8 1.7 71 2.0 SW 11 19 6 10 - - 0.0
14/12:30am 6.6 3.6 1.7 71 2.0 SW 7 11 4 6 - - 0.0
14/12:00am 6.9 3.1 1.8 70 2.1 SW 11 20 6 11 - - 0.0
 
Date/Time
EST
Temp
°C
App
Temp
°C
Dew
Point
°C
Rel
Hum
%
Delta-T
°C
Wind Press
QNH
hPa
Press
MSL
hPa
Rain since
9am
mm
Dir  Spd
km/h
Gust
km/h
Spd
kts
Gust
kts
13/11:30pm 7.3 3.1 1.8 68 2.3 SW 13 20 7 11 - - 0.0
13/11:00pm 7.3 3.5 1.8 68 2.3 SW 11 17 6 9 - - 0.0
13/10:30pm 7.7 4.3 1.8 66 2.4 SW 9 17 5 9 - - 0.0
13/10:00pm 8.0 4.6 1.6 64 2.6 SW 9 13 5 7 - - 0.0
13/09:30pm 8.4 4.6 1.8 63 2.7 SW 11 17 6 9 - - 0.0
13/09:00pm 8.8 4.7 2.2 63 2.8 SW 13 20 7 11 - - 0.0
13/08:30pm 8.3 5.3 2.1 65 2.6 SW 7 11 4 6 - - 0.0
13/08:00pm 8.5 5.1 2.1 64 2.7 SW 9 15 5 8 - - 0.0
13/07:30pm 8.5 5.1 2.1 64 2.7 SW 9 15 5 8 - - 0.0
13/07:00pm 8.8 5.8 1.7 61 3.0 SW 7 13 4 7 - - 0.0
13/06:30pm 9.6 6.1 1.5 57 3.4 WSW 9 13 5 7 - - 0.0
13/06:00pm 10.6 7.1 1.4 53 3.9 W 9 13 5 7 - - 0.0
13/05:30pm 11.5 7.7 1.5 50 4.3 WSW 11 19 6 10 - - 0.0
13/05:00pm 12.6 8.0 1.6 47 4.7 WSW 15 26 8 14 - - 0.0
13/04:30pm 13.7 9.5 1.7 44 5.2 WSW 13 32 7 17 - - 0.0
13/04:00pm 14.9 10.8 2.1 42 5.7 W 13 24 7 13 - - 0.0
13/03:30pm 15.5 11.3 1.6 39 6.2 W 13 26 7 14 - - 0.0
13/03:00pm 16.5 12.4 2.2 38 6.5 WNW 13 22 7 12 - - 0.0
13/02:30pm 16.6 12.8 1.9 37 6.6 W 11 19 6 10 - - 0.0
13/02:00pm 16.4 12.6 1.7 37 6.6 WSW 11 24 6 13 - - 0.0
13/01:30pm 16.0 11.7 1.3 37 6.5 WSW 13 24 7 13 - - 0.0
13/01:00pm 15.5 10.5 1.6 39 6.2 WSW 17 35 9 19 - - 0.0
13/12:30pm 15.4 11.7 2.2 41 5.9 WSW 11 22 6 12 - - 0.0
13/12:00pm 14.6 9.7 1.8 42 5.6 WSW 17 28 9 15 - - 0.0
13/11:30am 13.9 10.2 2.5 46 5.1 WSW 11 30 6 16 - - 0.0
13/11:00am 12.9 7.6 1.9 47 4.8 WSW 19 32 10 17 - - 0.0
13/10:30am 11.8 8.2 2.8 54 4.0 W 11 17 6 9 - - 0.0
13/10:00am 11.4 7.3 2.2 53 4.0 WSW 13 24 7 13 - - 0.0
13/09:30am 9.9 6.5 2.0 58 3.4 WSW 9 15 5 8 - - 0.0
13/09:00am 8.5 5.5 1.9 63 2.8 WSW 7 15 4 8 - - 0.0
13/08:30am 7.1 4.2 1.4 67 2.3 SW 6 11 3 6 - - 0.0
13/08:00am 5.2 2.1 1.1 75 1.6 W 7 11 4 6 - - 0.0
13/07:30am 4.1 0.5 0.8 79 1.3 WSW 9 11 5 6 - - 0.0
13/07:00am 4.1 0.6 1.1 81 1.2 WSW 9 17 5 9 - - 0.0
13/06:30am 3.2 -0.4 0.9 85 0.9 WSW 9 11 5 6 - - 0.0
13/06:00am 3.9 0.9 0.9 81 1.2 SW 6 6 3 3 - - 0.0
13/05:30am 4.7 1.6 1.4 79 1.3 SW 7 9 4 5 - - 0.0

Other Formats:

Comma delimited format used in spreadsheet applications
http://www.bom.gov.au/fwo/IDN60801/IDN60801.95684.axf

JavaScript Object Notation format (JSON) in row-major order
http://www.bom.gov.au/fwo/IDN60801/IDN60801.95684.json